createdAt,value
2022-09-12T00:00:08.954Z,13.94
2022-09-12T00:03:01.767Z,13.91
2022-09-12T00:05:53.304Z,13.89
2022-09-12T00:08:45.270Z,13.83
2022-09-12T00:11:38.651Z,13.83
2022-09-12T00:14:30.275Z,13.81
2022-09-12T00:17:21.693Z,13.78
2022-09-12T00:20:14.376Z,13.76
2022-09-12T00:23:05.956Z,13.75
2022-09-12T00:25:57.248Z,13.71
2022-09-12T00:28:49.395Z,13.68
2022-09-12T00:31:40.806Z,13.68
2022-09-12T00:34:32.658Z,13.66
2022-09-12T00:37:25.539Z,13.67
2022-09-12T00:40:17.186Z,13.68
2022-09-12T00:43:14.275Z,13.67
2022-09-12T00:46:14.732Z,13.66
2022-09-12T00:49:12.581Z,13.61
2022-09-12T00:52:09.702Z,13.62
2022-09-12T00:55:08.154Z,13.57
2022-09-12T00:58:03.870Z,13.50
2022-09-12T01:00:55.607Z,13.46
2022-09-12T01:03:47.986Z,13.45
2022-09-12T01:06:42.278Z,13.44
2022-09-12T01:09:34.548Z,13.39
2022-09-12T01:12:28.143Z,13.38
2022-09-12T01:15:20.071Z,13.34
2022-09-12T01:18:21.694Z,13.32
2022-09-12T01:21:26.075Z,13.32
2022-09-12T01:24:39.755Z,13.30
2022-09-12T01:27:45.052Z,13.29
2022-09-12T01:30:52.228Z,13.26
2022-09-12T01:34:02.130Z,13.22
2022-09-12T01:37:03.693Z,13.18
2022-09-12T01:40:03.181Z,13.19
2022-09-12T01:43:01.367Z,13.19
2022-09-12T01:46:02.102Z,13.15
2022-09-12T01:48:58.721Z,13.14
2022-09-12T01:51:59.928Z,13.12
2022-09-12T01:54:55.580Z,13.11
2022-09-12T01:57:53.462Z,13.11
2022-09-12T02:00:52.082Z,13.11
2022-09-12T02:03:50.998Z,13.08
2022-09-12T02:06:47.417Z,13.08
2022-09-12T02:09:44.013Z,13.02
2022-09-12T02:12:41.355Z,12.99
2022-09-12T02:15:38.885Z,12.95
2022-09-12T02:18:33.924Z,12.95
2022-09-12T02:21:32.782Z,12.95
2022-09-12T02:24:30.127Z,12.95
2022-09-12T02:27:24.973Z,12.96
2022-09-12T02:30:19.331Z,12.94
2022-09-12T02:33:21.815Z,12.93
2022-09-12T02:36:23.907Z,12.92
2022-09-12T02:39:19.970Z,12.90
2022-09-12T02:42:12.423Z,12.88
2022-09-12T02:45:05.279Z,12.84
2022-09-12T02:48:00.809Z,12.82
2022-09-12T02:50:52.680Z,12.81
2022-09-12T02:53:44.338Z,12.81
2022-09-12T02:56:37.727Z,12.81
2022-09-12T02:59:29.541Z,12.80
2022-09-12T03:02:31.404Z,12.80
2022-09-12T03:05:27.822Z,12.79
2022-09-12T03:08:38.454Z,12.77
2022-09-12T03:11:52.082Z,12.76
2022-09-12T03:15:01.557Z,12.73
2022-09-12T03:18:07.400Z,12.69
2022-09-12T03:21:05.685Z,12.68
2022-09-12T03:24:07.602Z,12.69
2022-09-12T03:27:10.198Z,12.67
2022-09-12T03:30:02.784Z,12.65
2022-09-12T03:32:56.199Z,12.61
2022-09-12T03:35:48.556Z,12.57
2022-09-12T03:38:40.173Z,12.50
2022-09-12T03:41:31.730Z,12.52
2022-09-12T03:44:25.150Z,12.55
2022-09-12T03:47:17.065Z,12.57
2022-09-12T03:50:09.484Z,12.54
2022-09-12T03:53:01.011Z,12.53
2022-09-12T03:55:52.651Z,12.52
2022-09-12T03:58:44.614Z,12.50
2022-09-12T04:01:38.514Z,12.48
2022-09-12T04:04:30.250Z,12.45
2022-09-12T04:07:21.783Z,12.44
2022-09-12T04:10:16.089Z,12.39
2022-09-12T04:13:08.117Z,12.39
2022-09-12T04:16:00.565Z,12.37
2022-09-12T04:18:53.488Z,12.40
2022-09-12T04:21:45.052Z,12.44
2022-09-12T04:24:36.993Z,12.45
2022-09-12T04:27:28.828Z,12.44
2022-09-12T04:30:20.528Z,12.45
2022-09-12T04:33:12.535Z,12.47
2022-09-12T04:36:07.485Z,12.49
2022-09-12T04:39:00.297Z,12.48
2022-09-12T04:41:52.019Z,12.50
2022-09-12T04:44:43.873Z,12.50
2022-09-12T04:47:35.696Z,12.48
2022-09-12T04:50:27.371Z,12.51
2022-09-12T04:53:20.528Z,12.51
2022-09-12T04:56:12.884Z,12.52
2022-09-12T04:59:04.823Z,12.53
2022-09-12T05:01:56.548Z,12.51
2022-09-12T05:04:48.150Z,12.53
2022-09-12T05:07:39.976Z,12.53
2022-09-12T05:10:32.942Z,12.52
2022-09-12T05:13:24.730Z,12.48
2022-09-12T05:16:18.791Z,12.49
2022-09-12T05:19:12.315Z,12.53
2022-09-12T05:22:05.061Z,12.58
2022-09-12T05:24:56.430Z,12.57
2022-09-12T05:27:53.849Z,12.54
2022-09-12T05:30:45.913Z,12.55
2022-09-12T05:33:39.756Z,12.63
2022-09-12T05:36:31.957Z,12.68
2022-09-12T05:39:24.620Z,12.70
2022-09-12T05:42:16.360Z,12.68
2022-09-12T05:45:10.572Z,12.71
2022-09-12T05:48:03.016Z,12.73
2022-09-12T05:51:01.445Z,12.77
2022-09-12T05:53:56.754Z,12.83
2022-09-12T05:56:49.382Z,12.89
2022-09-12T05:59:41.062Z,12.94
2022-09-12T06:02:34.330Z,13.00
2022-09-12T06:05:26.189Z,13.07
2022-09-12T06:08:18.261Z,13.18
2022-09-12T06:11:11.841Z,13.29
2022-09-12T06:14:04.376Z,13.37
2022-09-12T06:16:56.078Z,13.43
2022-09-12T06:19:49.792Z,13.49
2022-09-12T06:22:41.588Z,13.52
2022-09-12T06:25:33.697Z,13.64
2022-09-12T06:28:25.079Z,13.74
2022-09-12T06:31:18.680Z,13.87
2022-09-12T06:34:11.885Z,14.01
2022-09-12T06:37:04.943Z,14.11
2022-09-12T06:39:56.487Z,14.32
2022-09-12T06:42:48.693Z,14.36
2022-09-12T06:45:40.453Z,14.38
2022-09-12T06:48:32.422Z,14.46
2022-09-12T06:51:24.626Z,14.48
2022-09-12T06:54:18.154Z,14.54
2022-09-12T06:57:09.687Z,14.64
2022-09-12T07:00:02.147Z,14.73
2022-09-12T07:02:56.384Z,14.85
2022-09-12T07:05:48.279Z,14.99
2022-09-12T07:08:40.867Z,15.10
2022-09-12T07:11:36.553Z,15.13
2022-09-12T07:14:28.290Z,15.24
2022-09-12T07:17:20.287Z,15.32
2022-09-12T07:20:11.835Z,15.49
2022-09-12T07:23:03.549Z,15.64
2022-09-12T07:25:57.139Z,15.76
2022-09-12T07:28:54.086Z,15.95
2022-09-12T07:31:46.227Z,16.08
2022-09-12T07:34:37.993Z,16.27
2022-09-12T07:37:31.195Z,16.39
2022-09-12T07:40:22.986Z,16.49
2022-09-12T07:43:14.252Z,16.58
2022-09-12T07:46:08.017Z,17.02
2022-09-12T07:49:01.416Z,17.44
2022-09-12T07:51:53.154Z,19.47
2022-09-12T07:55:04.916Z,22.06
2022-09-12T07:57:56.719Z,23.43
2022-09-12T08:00:48.138Z,24.12
2022-09-12T08:03:42.176Z,25.28
2022-09-12T08:06:36.057Z,24.63
2022-09-12T08:09:28.012Z,21.44
2022-09-12T08:12:20.254Z,19.89
2022-09-12T08:15:31.432Z,18.88
2022-09-12T08:18:43.566Z,18.47
2022-09-12T08:21:54.050Z,18.48
2022-09-12T08:25:05.161Z,18.49
2022-09-12T08:28:15.203Z,18.60
2022-09-12T08:31:27.239Z,18.73
2022-09-12T08:34:39.041Z,18.80
2022-09-12T08:37:48.993Z,18.93
2022-09-12T08:41:08.296Z,18.91
2022-09-12T08:44:32.862Z,18.95
2022-09-12T08:47:46.461Z,18.94
2022-09-12T08:50:58.440Z,19.15
2022-09-12T08:54:20.360Z,19.21
2022-09-12T08:57:30.644Z,19.35
2022-09-12T09:00:50.241Z,19.23
2022-09-12T09:04:28.937Z,19.39
2022-09-12T09:08:11.185Z,19.29
2022-09-12T09:11:48.305Z,19.40
2022-09-12T09:15:22.148Z,19.51
2022-09-12T09:18:35.412Z,19.60
2022-09-12T09:21:51.346Z,19.66
2022-09-12T09:25:09.489Z,19.74
2022-09-12T09:28:24.061Z,19.63
2022-09-12T09:31:38.646Z,19.75
2022-09-12T09:34:48.905Z,19.66
2022-09-12T09:38:08.695Z,19.61
2022-09-12T09:41:36.430Z,19.69
2022-09-12T09:44:49.097Z,19.88
2022-09-12T09:48:04.783Z,20.08
2022-09-12T09:51:18.080Z,20.16
2022-09-12T09:54:35.545Z,20.01
2022-09-12T09:57:48.425Z,20.09
2022-09-12T10:01:02.770Z,20.17
2022-09-12T10:04:20.434Z,20.23
2022-09-12T10:07:30.911Z,20.12
2022-09-12T10:10:54.754Z,20.17
2022-09-12T10:14:22.984Z,20.36
2022-09-12T10:17:43.047Z,20.33
2022-09-12T10:20:53.189Z,20.44
2022-09-12T10:24:07.590Z,20.47
2022-09-12T10:27:23.365Z,20.57
2022-09-12T10:30:35.603Z,20.54
2022-09-12T10:33:52.626Z,20.66
2022-09-12T10:37:06.112Z,20.54
2022-09-12T10:40:25.456Z,20.75
2022-09-12T10:43:37.994Z,20.82
2022-09-12T10:46:49.833Z,20.78
2022-09-12T10:50:22.980Z,20.96
2022-09-12T10:53:41.371Z,20.99
2022-09-12T10:57:14.568Z,21.04
2022-09-12T11:00:30.311Z,21.12
2022-09-12T11:03:54.312Z,21.05
2022-09-12T11:07:22.356Z,21.04
2022-09-12T11:10:46.493Z,21.09
2022-09-12T11:14:14.110Z,21.02
2022-09-12T11:17:37.389Z,21.08
2022-09-12T11:21:04.821Z,21.26
2022-09-12T11:24:36.153Z,21.24
2022-09-12T11:28:04.099Z,21.26
2022-09-12T11:31:40.934Z,21.28
2022-09-12T11:35:04.872Z,21.30
2022-09-12T11:38:48.396Z,21.43
2022-09-12T11:42:03.757Z,21.49
2022-09-12T11:45:19.404Z,21.42
2022-09-12T11:48:40.100Z,21.44
2022-09-12T11:51:54.913Z,21.46
2022-09-12T11:55:13.722Z,21.41
2022-09-12T11:58:27.369Z,21.47
2022-09-12T12:01:47.665Z,21.34
2022-09-12T12:05:20.559Z,21.43
2022-09-12T12:08:32.388Z,21.44
2022-09-12T12:11:49.050Z,21.43
2022-09-12T12:15:00.026Z,21.44
2022-09-12T12:18:19.136Z,21.60
2022-09-12T12:21:41.012Z,21.67
2022-09-12T12:24:59.459Z,21.74
2022-09-12T12:28:11.134Z,21.64
2022-09-12T12:31:21.477Z,21.67
2022-09-12T12:34:33.499Z,21.62
2022-09-12T12:37:56.951Z,21.62
2022-09-12T12:41:45.032Z,21.74
2022-09-12T12:44:56.544Z,21.86
2022-09-12T12:48:12.199Z,22.00
2022-09-12T12:51:37.230Z,21.99
2022-09-12T12:54:58.403Z,22.07
2022-09-12T12:58:25.070Z,21.84
2022-09-12T13:01:41.027Z,21.90
2022-09-12T13:04:51.882Z,21.88
2022-09-12T13:08:10.076Z,21.85
2022-09-12T13:11:32.316Z,21.91
2022-09-12T13:14:52.602Z,21.86
2022-09-12T13:18:06.806Z,21.95
2022-09-12T13:21:19.113Z,21.95
2022-09-12T13:24:29.954Z,22.07
2022-09-12T13:27:40.045Z,22.10
2022-09-12T13:30:59.014Z,22.07
2022-09-12T13:34:12.471Z,22.00
2022-09-12T13:37:39.476Z,22.05
2022-09-12T13:41:06.730Z,22.02
2022-09-12T13:44:20.961Z,21.91
2022-09-12T13:47:36.875Z,22.05
2022-09-12T13:50:52.600Z,22.00
2022-09-12T13:54:06.357Z,22.00
2022-09-12T13:57:34.050Z,21.84
2022-09-12T14:00:45.000Z,21.84
2022-09-12T14:04:13.905Z,21.72
2022-09-12T14:07:27.324Z,21.72
2022-09-12T14:10:41.068Z,21.83
2022-09-12T14:13:52.694Z,21.84
2022-09-12T14:17:19.756Z,21.88
2022-09-12T14:20:33.936Z,21.93
2022-09-12T14:23:48.684Z,22.00
2022-09-12T14:26:58.988Z,22.13
2022-09-12T14:30:22.653Z,22.10
2022-09-12T14:33:43.049Z,22.12
2022-09-12T14:36:56.255Z,22.05
2022-09-12T14:40:18.032Z,21.93
2022-09-12T14:43:30.037Z,21.86
2022-09-12T14:46:42.768Z,21.86
2022-09-12T14:49:53.584Z,21.94
2022-09-12T14:53:06.099Z,21.69
2022-09-12T14:56:18.067Z,21.72
2022-09-12T14:59:31.346Z,21.80
2022-09-12T15:02:42.801Z,21.79
2022-09-12T15:05:53.150Z,21.72
2022-09-12T15:09:08.060Z,21.70
2022-09-12T15:12:19.884Z,21.55
2022-09-12T15:15:30.021Z,21.46
2022-09-12T15:18:40.159Z,21.40
2022-09-12T15:21:50.324Z,21.44
2022-09-12T15:25:00.685Z,21.47
2022-09-12T15:28:19.118Z,21.47
2022-09-12T15:31:31.132Z,21.58
2022-09-12T15:34:41.781Z,21.65
2022-09-12T15:37:52.381Z,21.78
2022-09-12T15:41:02.861Z,21.81
2022-09-12T15:44:14.666Z,21.84
2022-09-12T15:47:24.844Z,22.01
2022-09-12T15:50:36.117Z,22.04
2022-09-12T15:53:47.487Z,21.99
2022-09-12T15:56:58.084Z,22.04
2022-09-12T16:00:11.189Z,21.98
2022-09-12T16:03:24.058Z,21.81
2022-09-12T16:06:37.301Z,21.78
2022-09-12T16:09:48.082Z,21.75
2022-09-12T16:12:59.677Z,21.72
2022-09-12T16:16:11.595Z,21.65
2022-09-12T16:19:22.460Z,21.52
2022-09-12T16:22:33.620Z,21.48
2022-09-12T16:25:43.925Z,21.45
2022-09-12T16:28:55.883Z,21.46
2022-09-12T16:32:07.439Z,21.43
2022-09-12T16:35:17.468Z,21.30
2022-09-12T16:38:27.995Z,21.23
2022-09-12T16:41:38.169Z,21.14
2022-09-12T16:44:48.404Z,21.11
2022-09-12T16:47:59.619Z,21.01
2022-09-12T16:51:09.740Z,20.98
2022-09-12T16:54:20.119Z,20.90
2022-09-12T16:57:30.303Z,20.88
2022-09-12T17:00:40.149Z,20.90
2022-09-12T17:03:54.353Z,20.80
2022-09-12T17:07:04.855Z,20.79
2022-09-12T17:10:15.061Z,20.74
2022-09-12T17:13:36.559Z,20.68
2022-09-12T17:16:55.268Z,20.61
2022-09-12T17:20:07.161Z,20.59
2022-09-12T17:23:17.854Z,20.56
2022-09-12T17:26:27.954Z,20.53
2022-09-12T17:29:38.634Z,20.51
2022-09-12T17:32:48.741Z,20.49
2022-09-12T17:36:02.860Z,20.43
2022-09-12T17:39:14.423Z,20.36
2022-09-12T17:42:24.377Z,20.26
2022-09-12T17:45:34.454Z,20.20
2022-09-12T17:48:44.955Z,20.17
2022-09-12T17:51:57.896Z,20.12
2022-09-12T17:55:08.448Z,20.07
2022-09-12T17:58:18.635Z,20.02
2022-09-12T18:02:02.202Z,19.98
2022-09-12T18:05:12.561Z,19.93
2022-09-12T18:08:25.236Z,19.88
2022-09-12T18:11:36.067Z,19.87
2022-09-12T18:14:46.427Z,19.86
2022-09-12T18:17:56.629Z,19.84
2022-09-12T18:21:08.559Z,19.87
2022-09-12T18:24:20.755Z,19.83
2022-09-12T18:27:31.296Z,19.86
2022-09-12T18:30:42.454Z,19.81
2022-09-12T18:33:53.121Z,19.81
2022-09-12T18:37:05.195Z,19.75
2022-09-12T18:40:17.168Z,19.70
2022-09-12T18:43:27.131Z,19.64
2022-09-12T18:46:37.273Z,19.65
2022-09-12T18:49:48.495Z,19.63
2022-09-12T18:52:59.866Z,19.61
2022-09-12T18:56:13.763Z,19.64
2022-09-12T18:59:24.147Z,19.62
2022-09-12T19:02:34.827Z,19.59
2022-09-12T19:05:44.833Z,19.58
2022-09-12T19:08:56.445Z,19.58
2022-09-12T19:12:08.795Z,19.51
2022-09-12T19:15:18.951Z,19.48
2022-09-12T19:18:28.900Z,19.46
2022-09-12T19:21:39.024Z,19.38
2022-09-12T19:24:49.076Z,19.33
2022-09-12T19:28:00.487Z,19.27
2022-09-12T19:31:13.148Z,19.23
2022-09-12T19:34:23.482Z,19.23
2022-09-12T19:37:33.523Z,19.18
2022-09-12T19:40:44.114Z,19.12
2022-09-12T19:43:56.235Z,19.08
2022-09-12T19:47:06.594Z,19.05
2022-09-12T19:50:17.084Z,18.98
2022-09-12T19:53:28.347Z,18.90
2022-09-12T19:56:38.838Z,18.81
2022-09-12T19:59:50.372Z,18.83
2022-09-12T20:03:00.814Z,18.78
2022-09-12T20:06:13.123Z,18.74
2022-09-12T20:09:23.588Z,18.70
2022-09-12T20:12:33.997Z,18.66
2022-09-12T20:15:45.526Z,18.58
2022-09-12T20:18:58.242Z,18.54
2022-09-12T20:22:08.474Z,18.46
2022-09-12T20:25:20.004Z,18.50
2022-09-12T20:28:30.476Z,18.43
2022-09-12T20:31:43.207Z,18.32
2022-09-12T20:34:53.812Z,18.32
2022-09-12T20:38:04.008Z,18.33
2022-09-12T20:41:14.169Z,18.24
2022-09-12T20:44:24.399Z,18.18
2022-09-12T20:47:36.074Z,18.10
2022-09-12T20:50:46.454Z,18.06
2022-09-12T20:53:57.626Z,17.96
2022-09-12T20:57:07.784Z,17.90
2022-09-12T21:00:18.339Z,17.86
2022-09-12T21:03:29.985Z,17.87
2022-09-12T21:06:40.374Z,17.81
2022-09-12T21:09:50.616Z,17.80
2022-09-12T21:13:00.747Z,17.82
2022-09-12T21:16:13.744Z,17.78
2022-09-12T21:19:25.703Z,17.71
2022-09-12T21:22:36.120Z,17.70
2022-09-12T21:25:52.165Z,17.64
2022-09-12T21:29:03.203Z,17.66
2022-09-12T21:32:14.324Z,17.66
2022-09-12T21:35:26.132Z,17.62
2022-09-12T21:38:36.482Z,17.59
2022-09-12T21:41:46.843Z,17.61
2022-09-12T21:44:57.091Z,17.57
2022-09-12T21:48:07.680Z,17.59
2022-09-12T21:51:19.244Z,17.57
2022-09-12T21:54:29.821Z,17.61
2022-09-12T21:57:40.175Z,17.60
2022-09-12T22:00:51.219Z,17.66
2022-09-12T22:04:01.668Z,17.61
2022-09-12T22:07:13.017Z,17.59
2022-09-12T22:10:23.433Z,17.53
2022-09-12T22:13:33.724Z,17.51
2022-09-12T22:16:44.411Z,17.47
2022-09-12T22:19:54.962Z,17.44
2022-09-12T22:23:28.830Z,17.39
2022-09-12T22:26:43.203Z,17.37
2022-09-12T22:29:53.627Z,17.38
2022-09-12T22:32:51.074Z,17.37
2022-09-12T22:39:32.509Z,17.35
2022-09-12T22:42:42.952Z,17.32
2022-09-12T22:45:53.262Z,17.27
2022-09-12T22:49:04.664Z,17.29
2022-09-12T22:52:15.844Z,17.29
2022-09-12T22:55:27.760Z,17.28
2022-09-12T22:58:38.144Z,17.28
2022-09-12T23:01:48.365Z,17.26
2022-09-12T23:04:58.890Z,17.24
2022-09-12T23:08:09.082Z,17.24
2022-09-12T23:11:22.094Z,17.27
2022-09-12T23:14:32.510Z,17.25
2022-09-12T23:17:42.730Z,17.25
2022-09-12T23:21:00.192Z,17.24
2022-09-12T23:24:10.753Z,17.25
2022-09-12T23:27:23.236Z,17.23
2022-09-12T23:30:33.502Z,17.15
2022-09-12T23:33:44.178Z,17.11
2022-09-12T23:36:55.183Z,16.98
2022-09-12T23:40:06.042Z,16.95
2022-09-12T23:43:17.296Z,16.94
2022-09-12T23:46:27.841Z,16.93
2022-09-12T23:49:38.452Z,16.99
2022-09-12T23:52:48.544Z,17.02
2022-09-12T23:55:59.170Z,17.02
2022-09-12T23:59:10.553Z,17.04
